Flight Track Log - Related Links

Times and Time Zones

All times are in EDT time to prevent confusion due to time zone crossing. See the NKS904 flight status page for this flight to view local times or setup timezone preferences in your user account.

Time Position Orientation Groundspeed Altitude Reporting Facility
EDT Latitude Longitude Course Direction KTS MPH feet Rate Location/Type
Tue 08:22:57 PM 32.9532 -97.0230 17° North 191 220 2,700  Level FlightAware ADS-B
Tue 08:23:17 PM 32.9719 -97.0158 18° North 220 253 3,200 1,950 Climbing FlightAware ADS-B
Tue 08:23:37 PM 32.9940 -97.0070 20° North 241 277 4,000 2,786 Climbing FlightAware ADS-B
Tue 08:23:45 PM 33.0021 -97.0013 32° Northeast 244 281 4,500 3,429 Climbing FlightAware ADS-B
Tue 08:23:58 PM 33.0123 -96.9893 48° Northeast 249 287 5,200 3,143 Climbing FlightAware ADS-B
Tue 08:24:06 PM 33.0163 -96.9809 60° Northeast 256 295 5,600 3,000 Climbing FlightAware ADS-B
Tue 08:24:14 PM 33.0199 -96.9663 76° East 268 308 6,000 3,000 Climbing FlightAware ADS-B
Tue 08:24:26 PM 33.0202 -96.9487 90° East 285 328 6,600 2,927 Climbing FlightAware ADS-B
Tue 08:24:55 PM 33.0150 -96.9036 103° East 299 344 8,000 3,073 Climbing FlightAware ADS-B
Tue 08:25:07 PM 33.0078 -96.8846 118° Southeast 307 353 8,700 2,727 Climbing FlightAware ADS-B
Tue 08:25:28 PM 32.9921 -96.8548 122° Southeast 320 368 9,500 2,082 Climbing FlightAware ADS-B
Tue 08:25:56 PM 32.9654 -96.8110 136° Southeast 354 407 10,400 1,800 Climbing FlightAware ADS-B
Tue 08:26:08 PM 32.9485 -96.7975 152° Southeast 372 428 10,700 1,034 Climbing FlightAware ADS-B
Tue 08:26:25 PM 32.9221 -96.7885 171° South 387 445 10,900 1,224 Climbing FlightAware ADS-B
Tue 08:26:57 PM 32.8652 -96.7871 181° South 409 471 11,700 2,123 Climbing FlightAware ADS-B
Tue 08:27:30 PM 32.7978 -96.7907 183° South 413 475 13,200 2,341 Climbing FlightAware ADS-B
Tue 08:28:19 PM 32.7012 -96.7884 165° South 438 504 14,900 2,123 Climbing FlightAware ADS-B
Tue 08:28:35 PM 32.6748 -96.7734 148° Southeast 439 505 15,500 1,929 Climbing FlightAware ADS-B
Tue 08:28:47 PM 32.6586 -96.7575 137° Southeast 435 501 15,800 2,100 Climbing FlightAware ADS-B
Tue 08:28:55 PM 32.6449 -96.7370 125° Southeast 430 495 16,200 2,286 Climbing FlightAware ADS-B
Tue 08:29:08 PM 32.6361 -96.7153 112° Southeast 421 484 16,600 1,889 Climbing FlightAware ADS-B
Tue 08:29:49 PM 32.6172 -96.6249 102° East 422 486 17,900 1,053 Climbing FlightAware ADS-B
Tue 08:31:59 PM 32.5933 -96.3291 84° East 419 482 19,600 1,163 Climbing FlightAware ADS-B
Tue 08:32:29 PM 32.6002 -96.2445 84° East 422 486 21,000 2,262 Climbing FlightAware ADS-B (KHPY)
Tue 08:33:00 PM 32.6055 -96.1787 84° East 424 488 21,900 1,500 Climbing FlightAware ADS-B (KHPY)
Tue 08:33:29 PM 32.6118 -96.1050 84° East 432 497 22,500 1,138 Climbing FlightAware ADS-B (KHPY)
Tue 08:33:58 PM 32.6167 -96.0454 84° East 442 509 23,000 1,500 Climbing FlightAware ADS-B (KHPY)
Tue 08:34:29 PM 32.6233 -95.9634 84° East 443 510 24,000 1,600 Climbing FlightAware ADS-B (KHPY)
Tue 08:34:58 PM 32.6289 -95.8940 84° East 448 516 24,600 1,114 Climbing FlightAware ADS-B (KHPY)
Tue 08:35:39 PM 32.6365 -95.8003 84° East 457 526 25,300 1,083 Climbing FlightAware ADS-B (KHPY)
Tue 08:36:10 PM 32.6435 -95.7123 84° East 464 534 25,900 1,200 Climbing FlightAware ADS-B (KHPY)
Tue 08:36:39 PM 32.6492 -95.6411 84° East 471 542 26,500 1,322 Climbing FlightAware ADS-B (KHPY)
Tue 08:37:09 PM 32.6554 -95.5610 84° East 470 541 27,200 1,179 Climbing FlightAware ADS-B (KHPY)
Tue 08:37:35 PM 32.6607 -95.4929 84° East 477 549 27,600 943 Climbing FlightAware ADS-B (KHPY)
Tue 08:38:19 PM 32.6690 -95.3862 84° East 484 557 28,300 986 Climbing FlightAware ADS-B (KHPY)
Tue 08:38:48 PM 32.6744 -95.3152 84° East 486 559 28,800 1,200 Climbing FlightAware ADS-B (KHPY)
Tue 08:39:19 PM 32.6814 -95.2214 84° East 487 560 29,500 1,475 Climbing FlightAware ADS-B (KHPY)
Tue 08:39:49 PM 32.6875 -95.1385 84° East 481 554 30,300 1,400 Climbing FlightAware ADS-B (KHPY)
Tue 08:40:19 PM 32.6919 -95.0800 84° East 479 551 30,900 1,347 Climbing FlightAware ADS-B (KHPY)
Tue 08:40:38 PM 32.6972 -95.0087 86° East 478 550 31,400 1,355 Climbing FlightAware ADS-B
Tue 08:40:50 PM 32.6991 -94.9837 84° East 477 549 31,600 938 Climbing FlightAware ADS-B (KHPY)
Tue 08:41:10 PM 32.7026 -94.9370 86° East 477 549 31,900 1,000 Climbing FlightAware ADS-B
Tue 08:41:20 PM 32.7052 -94.9019 84° East 479 551 32,100 1,077 Climbing FlightAware ADS-B (KHPY)
Tue 08:41:49 PM 32.7104 -94.8317 85° East 481 554 32,600 1,017 Climbing FlightAware ADS-B (KHPY)
Tue 08:42:19 PM 32.7119 -94.7510 91° East 492 566 33,100 900 Climbing FlightAware ADS-B (KHPY)
Tue 08:42:49 PM 32.7057 -94.6819 98° East 504 580 33,500 938 Climbing FlightAware ADS-B (KHPY)
Tue 08:42:51 PM 32.7036 -94.6653 98° East 505 581 33,600 800 Climbing FlightAware ADS-B
Tue 08:43:19 PM 32.6933 -94.5802 98° East 505 581 33,900 769 Climbing FlightAware ADS-B (KHPY)
Tue 08:43:30 PM 32.6898 -94.5510 98° East 505 581 34,100 1,000 Climbing FlightAware ADS-B
Tue 08:43:49 PM 32.6833 -94.4978 98° East 505 581 34,400 800 Climbing FlightAware ADS-B (KHPY)
Tue 08:44:00 PM 32.6804 -94.4735 98° East 507 583 34,500 600 Climbing FlightAware ADS-B
Tue 08:44:29 PM 32.6700 -94.3889 98° East 513 590 34,800 423 Climbing FlightAware ADS-B (KHPY)
Tue 08:45:11 PM 32.6560 -94.2747 98° East 504 580 35,000 240 Climbing FlightAware ADS-B
Tue 08:45:19 PM 32.6530 -94.2503 98° East 502 578 35,000  Level FlightAware ADS-B (KHPY)
Tue 08:45:50 PM 32.6427 -94.1678 98° East 506 582 35,000  Level FlightAware ADS-B
Tue 08:46:19 PM 32.6330 -94.0892 98° East 513 590 35,000  Level FlightAware ADS-B (KHPY)
Tue 08:46:20 PM 32.6327 -94.0874 98° East 514 592 35,000  Level FlightAware ADS-B
Tue 08:46:49 PM 32.6224 -94.0052 98° East 519 597 35,000  Level FlightAware ADS-B (KHPY)
Tue 08:46:50 PM 32.6218 -94.0007 99° East 520 598 35,000  Level FlightAware ADS-B
Tue 08:47:19 PM 32.6114 -93.9189 98° East 522 601 35,000  Level FlightAware ADS-B (KHPY)
Tue 08:47:49 PM 32.6009 -93.8376 98° East 525 604 35,000 100 Level FlightAware ADS-B (KHPY)
Tue 08:48:19 PM 32.5896 -93.7502 98° East 523 602 35,100  Climbing FlightAware ADS-B (KHPY)
Tue 08:48:59 PM 32.5750 -93.6371 99° East 518 596 35,000 -109 Descending FlightAware ADS-B
Tue 08:49:14 PM 32.5695 -93.5943 98° East 515 593 35,000  Level FlightAware ADS-B (KHPY)
Tue 08:49:30 PM 32.5635 -93.5483 99° East 514 592 35,000  Level FlightAware ADS-B
Tue 08:49:44 PM 32.5583 -93.5084 98° East 513 590 35,000  Level FlightAware ADS-B (KHPY)
Tue 08:50:08 PM 32.5499 -93.4434 99° East 514 592 35,000  Level FlightAware ADS-B
Tue 08:50:14 PM 32.5476 -93.4257 98° East 514 592 35,000  Level FlightAware ADS-B (KHPY)
Tue 08:50:41 PM 32.5378 -93.3512 99° East 514 592 35,000  Level FlightAware ADS-B
Tue 08:51:11 PM 32.5278 -93.2766 99° East 515 593 35,000  Level FlightAware ADS-B
Tue 08:51:35 PM 32.5181 -93.2032 98° East 514 592 35,000  Level FlightAware ADS-B (KHPY)
Tue 08:51:41 PM 32.5158 -93.1858 99° East 514 592 35,000  Level FlightAware ADS-B
Tue 08:52:19 PM 32.5018 -93.0811 99° East 511 588 35,000  Level FlightAware ADS-B
Tue 08:52:51 PM 32.4899 -92.9921 99° East 512 589 35,000 -85 Level FlightAware ADS-B
Tue 08:53:30 PM 32.4752 -92.8831 99° East 511 588 34,900  Descending FlightAware ADS-B
Tue 08:54:00 PM 32.4640 -92.8010 99° East 511 588 35,000 85 Climbing FlightAware ADS-B
Tue 08:54:41 PM 32.4507 -92.7020 99° East 510 587 35,000  Level FlightAware ADS-B
Tue 08:55:19 PM 32.4347 -92.5901 100° East 511 588 35,000  Level FlightAware ADS-B
Tue 08:55:44 PM 32.4242 -92.5144 99° East 511 588 35,000  Level FlightAware ADS-B (KHPY)
Tue 08:57:06 PM 32.3953 -92.3003 99° East 512 589 35,000  Level Fort Worth Center
Tue 08:58:08 PM 32.3700 -92.1325 100° East 513 590 35,000 48 Level Fort Worth Center
Tue 08:59:10 PM 32.3464 -91.9647 99° East 514 592 35,100  Climbing Fort Worth Center
Tue 09:00:12 PM 32.3219 -91.7992 100° East 513 590 35,000 -49 Descending Fort Worth Center
Tue 09:01:13 PM 32.2983 -91.6333 100° East 511 588 35,000  Level Fort Worth Center
Tue 09:02:15 PM 32.2739 -91.4678 100° East 511 588 35,000  Level Fort Worth Center
Tue 09:02:49 PM 32.2600 -91.3706 100° East 511 588 35,000  Level Houston Center
Tue 09:03:27 PM 32.2422 -91.2517 100° East 512 589 35,000  Level Memphis Center
Tue 09:04:29 PM 32.2164 -91.0864 100° East 513 590 35,000  Level Memphis Center
Tue 09:05:30 PM 32.1922 -90.9244 100° East 511 588 35,000  Level Memphis Center
Tue 09:06:31 PM 32.1683 -90.7619 100° East 510 587 35,000  Level Memphis Center
Tue 09:07:33 PM 32.1419 -90.5969 101° East 512 589 35,000  Level Memphis Center
Tue 09:08:34 PM 32.1117 -90.4006 100° East 512 589 35,000  Level Memphis Center
Tue 09:09:35 PM 32.0856 -90.2358 101° East 512 589 35,000  Level Memphis Center
Tue 09:10:37 PM 32.0603 -90.0719 100° East 514 592 35,000  Level Memphis Center
Tue 09:11:38 PM 32.0333 -89.9069 101° East 514 592 35,000  Level Memphis Center
Tue 09:12:39 PM 32.0067 -89.7442 101° East 514 592 35,000  Level Memphis Center
Tue 09:13:41 PM 31.9806 -89.5786 100° East 515 593 35,000  Level Memphis Center
Tue 09:14:42 PM 31.9483 -89.3839 101° East 515 593 35,000  Level Memphis Center
Tue 09:15:43 PM 31.9211 -89.2214 101° East 514 592 35,000  Level Memphis Center
Tue 09:16:44 PM 31.8958 -89.0675 101° East 514 592 35,000  Level Memphis Center
Tue 09:17:46 PM 31.8683 -88.9036 101° East 514 592 35,000  Level Memphis Center
Tue 09:18:47 PM 31.8400 -88.7386 101° East 513 590 35,000  Level Memphis Center
Tue 09:19:48 PM 31.8117 -88.5733 101° East 513 590 35,000  Level Memphis Center
Tue 09:20:50 PM 31.7831 -88.4078 101° East 514 592 35,000  Level Memphis Center
Tue 09:21:51 PM 31.7483 -88.2075 101° East 515 593 35,000  Level Memphis Center
Tue 09:22:52 PM 31.7189 -88.0403 102° East 515 593 35,000  Level Memphis Center
Tue 09:23:53 PM 31.6892 -87.8719 102° East 519 597 35,000  Level Memphis Center
Tue 09:24:55 PM 31.6589 -87.7053 102° East 519 597 35,000  Level Memphis Center
Tue 09:25:56 PM 31.6292 -87.5394 102° East 520 598 35,000 -49 Level Memphis Center
Tue 09:26:57 PM 31.5986 -87.3728 102° East 520 598 34,900  Descending Memphis Center
Tue 09:28:02 PM 31.5617 -87.1811 103° East 511 588 35,000 48 Climbing Jacksonville Center
Tue 09:29:03 PM 31.5356 -87.0239 101° East 517 595 35,000 50 Level Jacksonville Center
Tue 09:30:02 PM 31.4997 -86.8422 103° East 517 595 35,100  Climbing Jacksonville Center
Tue 09:31:02 PM 31.4689 -86.6850 103° East 536 617 35,000 -50 Descending Jacksonville Center
Tue 09:32:02 PM 31.4364 -86.5156 103° East 531 611 35,000 -50 Level Jacksonville Center
Tue 09:33:02 PM 31.4033 -86.3489 103° East 531 611 34,900  Descending Jacksonville Center
Tue 09:34:02 PM 31.3703 -86.1772 103° East 531 611 35,000 50 Climbing Jacksonville Center
Tue 09:35:03 PM 31.3392 -86.0083 102° East 531 611 35,000  Level Jacksonville Center
Tue 09:36:02 PM 31.3056 -85.8394 103° East 531 611 35,000  Level Jacksonville Center
Tue 09:37:02 PM 31.2703 -85.6489 102° East 531 611 35,000  Level Jacksonville Center
Tue 09:38:03 PM 31.2383 -85.4803 102° East 537 618 35,000 -50 Level Jacksonville Center
Tue 09:39:02 PM 31.2039 -85.3167 104° East 530 610 34,900 -50 Descending Jacksonville Center
Tue 09:40:03 PM 31.1714 -85.1506 103° East 525 604 34,900 50 Level Jacksonville Center
Tue 09:41:03 PM 31.1386 -84.9897 103° East 518 596 35,000 50 Climbing Jacksonville Center
Tue 09:42:03 PM 31.1036 -84.8289 104° East 512 589 35,000  Level Jacksonville Center
Tue 09:43:03 PM 31.0706 -84.6656 103° East 512 589 35,000  Level Jacksonville Center
Tue 09:44:03 PM 31.0353 -84.5000 104° East 512 589 35,000  Level Jacksonville Center
Tue 09:45:02 PM 31.0017 -84.3419 104° East 512 589 35,000  Level Jacksonville Center
Tue 09:46:03 PM 30.9511 -84.1911 111° Southeast 506 582 35,000  Level Jacksonville Center
Tue 09:47:03 PM 30.9044 -84.0378 109° East 499 574 35,000  Level Jacksonville Center
Tue 09:48:03 PM 30.8556 -83.8822 110° East 499 574 35,000 -252 Level Jacksonville Center
Tue 09:49:02 PM 30.8044 -83.7319 112° Southeast 499 574 34,500 -1,050 Descending Jacksonville Center
Tue 09:50:03 PM 30.7553 -83.5767 110° East 499 574 32,900 -1,750 Descending Jacksonville Center
Tue 09:51:02 PM 30.7100 -83.4314 110° East 499 574 31,000 -1,866 Descending Jacksonville Center
Tue 09:52:02 PM 30.6647 -83.2839 110° East 488 562 29,200 -1,736 Descending Jacksonville Center
Tue 09:53:03 PM 30.6192 -83.1436 111° Southeast 488 562 27,500 -1,140 Descending Jacksonville Center
Tue 09:54:03 PM 30.5503 -83.0397 128° Southeast 429 494 26,900 -655 Descending Jacksonville Center
Tue 09:55:02 PM 30.4711 -82.9575 138° Southeast 393 452 26,200 -1,000 Descending Jacksonville Center
Tue 09:56:03 PM 30.3917 -82.8781 139° Southeast 382 440 24,900 -645 Descending Jacksonville Center
Tue 09:57:03 PM 30.3167 -82.8011 138° Southeast 372 428 24,900 50 Level Jacksonville Center
Tue 09:58:03 PM 30.2497 -82.7314 138° Southeast 367 422 25,000 16 Climbing Jacksonville Center
Tue 10:03:09 PM 29.8315 -82.3858 157° South 336 387 25,000  Level FlightAware ADS-B
Tue 10:04:02 PM 29.7615 -82.3517 157° South 335 386 25,000  Level FlightAware ADS-B
Tue 10:04:33 PM 29.7114 -82.3276 157° South 338 389 25,000  Level FlightAware ADS-B
Tue 10:05:03 PM 29.6670 -82.3064 157° South 340 391 25,000  Level FlightAware ADS-B
Tue 10:05:35 PM 29.6233 -82.2853 157° South 342 394 25,000  Level FlightAware ADS-B
Tue 10:06:05 PM 29.5829 -82.2658 157° South 342 394 25,000 -300 Level FlightAware ADS-B
Tue 10:06:35 PM 29.5339 -82.2423 157° South 347 399 24,700 -1,700 Descending FlightAware ADS-B
Tue 10:08:05 PM 29.3983 -82.1771 157° South 352 405 21,600 -2,077 Descending FlightAware ADS-B
Tue 10:08:45 PM 29.3386 -82.1487 157° South 350 403 20,200 -2,057 Descending FlightAware ADS-B
Tue 10:09:15 PM 29.2939 -82.1271 157° South 344 396 19,200 -1,971 Descending FlightAware ADS-B
Tue 10:09:55 PM 29.2369 -82.0997 157° South 336 387 17,900 -1,886 Descending FlightAware ADS-B
Tue 10:10:25 PM 29.1941 -82.0792 157° South 329 379 17,000 -1,869 Descending FlightAware ADS-B
Tue 10:10:56 PM 29.1506 -82.0586 157° South 321 369 16,000 -1,800 Descending FlightAware ADS-B
Tue 10:11:45 PM 29.0882 -82.0288 157° South 307 353 14,600 -1,671 Descending FlightAware ADS-B
Tue 10:12:15 PM 29.0468 -82.0089 158° South 300 345 13,800 -1,622 Descending FlightAware ADS-B
Tue 10:12:59 PM 28.9913 -81.9828 157° South 292 336 12,600 -1,595 Descending FlightAware ADS-B
Tue 10:13:34 PM 28.9590 -81.9674 157° South 284 327 11,700 -950 Descending FlightAware ADS-B
Tue 10:14:40 PM 28.8737 -81.9165 127° Southeast 302 348 11,000 -1,182 Descending FlightAware ADS-B
Tue 10:15:46 PM 28.9945 -81.9844 123° Southeast 305 351 9,100 -1,617 Descending FlightAware ADS-B
Tue 10:17:01 PM 28.7678 -81.7318 123° Southeast 305 351 7,200 -1,263 Descending FlightAware ADS-B
Tue 10:17:21 PM 28.7533 -81.7068 123° Southeast 290 334 7,100 -162 Descending FlightAware ADS-B
Tue 10:17:38 PM 28.7413 -81.6858 122° Southeast 273 314 7,100  Level FlightAware ADS-B
Tue 10:18:01 PM 28.7247 -81.6554 122° Southeast 260 299 7,100  Level FlightAware ADS-B
Tue 10:18:31 PM 28.7069 -81.6221 121° Southeast 257 296 7,100  Level FlightAware ADS-B
Tue 10:18:52 PM 28.6922 -81.5947 121° Southeast 258 297 7,100 -439 Level FlightAware ADS-B (KSFB)
Tue 10:19:12 PM 28.6816 -81.5749 121° Southeast 256 295 6,800 -1,080 Descending FlightAware ADS-B
Tue 10:19:42 PM 28.6617 -81.5379 122° Southeast 261 300 6,200 -824 Descending FlightAware ADS-B
Tue 10:20:03 PM 28.6490 -81.5148 122° Southeast 248 285 6,100 -167 Descending FlightAware ADS-B
Tue 10:20:18 PM 28.6416 -81.5014 121° Southeast 241 277 6,100  Level FlightAware ADS-B (KSFB)
Tue 10:20:34 PM 28.6297 -81.4789 121° Southeast 239 275 6,100  Level FlightAware ADS-B
Tue 10:20:44 PM 28.6253 -81.4679 110° East 242 278 6,100 -300 Level FlightAware ADS-B
Tue 10:20:54 PM 28.6239 -81.4564 92° East 248 285 6,000 -1,200 Descending FlightAware ADS-B
Tue 10:21:04 PM 28.6265 -81.4409 72° East 252 290 5,700 -1,500 Descending FlightAware ADS-B
Tue 10:21:14 PM 28.6311 -81.4312 54° Northeast 250 288 5,500 -1,579 Descending FlightAware ADS-B
Tue 10:21:23 PM 28.6400 -81.4220 35° Northeast 242 278 5,200 -1,200 Descending FlightAware ADS-B
Tue 10:21:34 PM 28.6493 -81.4176 14° North 223 257 5,100 -240 Descending FlightAware ADS-B
Tue 10:21:48 PM 28.6633 -81.4170 357° North 198 228 5,100  Level FlightAware ADS-B (KSFB)
Tue 10:22:04 PM 28.6777 -81.4180 357° North 196 226 5,100  Level FlightAware ADS-B
Tue 10:22:24 PM 28.6964 -81.4192 357° North 198 228 5,100  Level FlightAware ADS-B
Tue 10:22:48 PM 28.7179 -81.4204 357° North 199 229 5,100  Level FlightAware ADS-B (KSFB)
Tue 10:23:05 PM 28.7299 -81.4211 357° North 199 229 5,100  Level FlightAware ADS-B
Tue 10:23:25 PM 28.7516 -81.4221 358° North 201 231 5,100 -154 Level FlightAware ADS-B
Tue 10:23:44 PM 28.7693 -81.4223 North 205 236 5,000 -400 Descending FlightAware ADS-B
Tue 10:23:55 PM 28.7791 -81.4187 27° Northeast 222 255 4,900 -857 Descending FlightAware ADS-B
Tue 10:23:58 PM 28.7713 -81.4219 23° Northeast 219 252 4,800 -1,200 Descending FlightAware ADS-B (KSFB)
Tue 10:24:05 PM 28.7883 -81.4100 49° Northeast 237 273 4,700 -1,412 Descending FlightAware ADS-B
Tue 10:24:15 PM 28.7941 -81.3980 68° East 244 281 4,400 -1,200 Descending FlightAware ADS-B
Tue 10:24:25 PM 28.7957 -81.3856 88° East 241 277 4,300 -600 Descending FlightAware ADS-B
Tue 10:24:35 PM 28.7937 -81.3744 108° East 229 264 4,200 -632 Descending FlightAware ADS-B
Tue 10:24:44 PM 28.7890 -81.3647 123° Southeast 219 252 4,100 -333 Descending FlightAware ADS-B
Tue 10:24:53 PM 28.7839 -81.3576 135° Southeast 211 243 4,100  Level FlightAware ADS-B
Tue 10:25:04 PM 28.7766 -81.3508 144° Southeast 206 237 4,100  Level FlightAware ADS-B
Tue 10:25:25 PM 28.7599 -81.3378 149° Southeast 209 241 4,100  Level FlightAware ADS-B
Tue 10:25:45 PM 28.7402 -81.3285 164° South 202 232 4,100  Level FlightAware ADS-B
Tue 10:26:02 PM 28.7259 -81.3257 174° South 196 226 4,100  Level FlightAware ADS-B (KSFB)
Tue 10:26:22 PM 28.7076 -81.3247 179° South 186 214 4,100  Level FlightAware ADS-B (KSFB)
Tue 10:26:39 PM 28.6937 -81.3245 180° South 167 192 4,100  Level FlightAware ADS-B (KSFB)
Tue 10:26:57 PM 28.6800 -81.3245 180° South 159 183 4,100  Level FlightAware ADS-B
Tue 10:27:12 PM 28.6696 -81.3245 180° South 159 183 4,100  Level FlightAware ADS-B (KSFB)
Tue 10:27:27 PM 28.6585 -81.3244 180° South 160 184 4,100 -375 Level FlightAware ADS-B
Tue 10:27:44 PM 28.6454 -81.3242 179° South 158 182 3,900 -947 Descending FlightAware ADS-B (KSFB)
Tue 10:28:05 PM 28.6304 -81.3241 180° South 161 185 3,500 -977 Descending FlightAware ADS-B (KSFB)
Tue 10:28:27 PM 28.6132 -81.3239 180° South 163 188 3,200 -828 Descending FlightAware ADS-B
Tue 10:28:34 PM 28.6088 -81.3239 180° South 162 186 3,100 -387 Descending FlightAware ADS-B (KSFB)
Tue 10:28:58 PM 28.5905 -81.3237 180° South 168 193 3,000 -545 Descending FlightAware ADS-B
Tue 10:29:18 PM 28.5738 -81.3236 180° South 169 194 2,700 -840 Descending FlightAware ADS-B
Tue 10:29:48 PM 28.5507 -81.3235 180° South 166 191 2,300 -960 Descending FlightAware ADS-B
Tue 10:30:08 PM 28.5358 -81.3231 179° South 162 186 1,900 -1,050 Descending FlightAware ADS-B
Tue 10:30:28 PM 28.5215 -81.3229 179° South 149 171 1,600 -769 Descending FlightAware ADS-B
Tue 10:30:47 PM 28.5086 -81.3228 179° South 144 166 1,400 -750 Descending FlightAware ADS-B
Tue 10:31:08 PM 28.4954 -81.3226 179° South 143 165 1,100 -878 Descending FlightAware ADS-B
Tue 10:31:28 PM 28.4811 -81.3226 181° South 143 165 800 -750 Descending FlightAware ADS-B
Tue 10:31:48 PM 28.4689 -81.3224 179° South 142 163 600 -615 Descending FlightAware ADS-B
Tue 10:32:07 PM 28.4551 -81.3224 180° South 144 166 400 -750 Descending FlightAware ADS-B
Tue 10:32:28 PM 28.4418 -81.3223 180° South 140 161 100 -293 Descending FlightAware ADS-B
Tue 10:32:48 PM 28.4310 -81.3221 180° South 88 101 200 300 Climbing FlightAware ADS-B

Login

Don't have an account? Register now (free) for customized features, flight alerts, and more!